sensor_id;sensor_type;location;lat;lon;timestamp;P1;durP1;ratioP1;P2;durP2;ratioP2
65996;SDS011;52765;52.258;21.052;2023-07-22T00:00:39;6.80;;;5.07;;
65996;SDS011;52765;52.258;21.052;2023-07-22T00:03:04;6.90;;;4.65;;
65996;SDS011;52765;52.258;21.052;2023-07-22T00:05:30;7.78;;;5.50;;
65996;SDS011;52765;52.258;21.052;2023-07-22T00:07:55;7.20;;;5.82;;
65996;SDS011;52765;52.258;21.052;2023-07-22T00:10:21;6.72;;;5.40;;
65996;SDS011;52765;52.258;21.052;2023-07-22T00:12:46;8.98;;;5.80;;
65996;SDS011;52765;52.258;21.052;2023-07-22T00:15:11;10.23;;;5.80;;
65996;SDS011;52765;52.258;21.052;2023-07-22T00:17:37;7.55;;;5.97;;
65996;SDS011;52765;52.258;21.052;2023-07-22T00:20:05;7.45;;;5.45;;
65996;SDS011;52765;52.258;21.052;2023-07-22T00:22:32;7.13;;;6.00;;
65996;SDS011;52765;52.258;21.052;2023-07-22T00:24:57;7.63;;;6.00;;
65996;SDS011;52765;52.258;21.052;2023-07-22T00:27:25;8.30;;;5.90;;
65996;SDS011;52765;52.258;21.052;2023-07-22T00:29:51;7.10;;;5.97;;
65996;SDS011;52765;52.258;21.052;2023-07-22T00:32:16;7.88;;;6.00;;
65996;SDS011;52765;52.258;21.052;2023-07-22T00:34:42;6.57;;;5.43;;
65996;SDS011;52765;52.258;21.052;2023-07-22T00:37:07;7.82;;;5.90;;
65996;SDS011;52765;52.258;21.052;2023-07-22T00:39:33;7.95;;;6.22;;
65996;SDS011;52765;52.258;21.052;2023-07-22T00:41:59;7.07;;;5.72;;
65996;SDS011;52765;52.258;21.052;2023-07-22T00:44:25;8.75;;;6.00;;
65996;SDS011;52765;52.258;21.052;2023-07-22T00:46:53;6.57;;;5.60;;
65996;SDS011;52765;52.258;21.052;2023-07-22T00:49:21;7.47;;;5.45;;
65996;SDS011;52765;52.258;21.052;2023-07-22T00:51:48;9.30;;;6.28;;
65996;SDS011;52765;52.258;21.052;2023-07-22T00:54:14;6.57;;;5.72;;
65996;SDS011;52765;52.258;21.052;2023-07-22T00:56:40;6.50;;;5.38;;
65996;SDS011;52765;52.258;21.052;2023-07-22T00:59:06;8.60;;;6.00;;
65996;SDS011;52765;52.258;21.052;2023-07-22T01:01:32;9.02;;;6.10;;
65996;SDS011;52765;52.258;21.052;2023-07-22T01:03:57;8.05;;;5.47;;
65996;SDS011;52765;52.258;21.052;2023-07-22T01:06:23;8.68;;;6.05;;
65996;SDS011;52765;52.258;21.052;2023-07-22T01:08:49;8.23;;;5.60;;
65996;SDS011;52765;52.258;21.052;2023-07-22T01:11:15;6.30;;;5.68;;
65996;SDS011;52765;52.258;21.052;2023-07-22T01:13:41;8.30;;;6.50;;
65996;SDS011;52765;52.258;21.052;2023-07-22T01:16:06;7.47;;;5.78;;
65996;SDS011;52765;52.258;21.052;2023-07-22T01:18:35;6.25;;;5.18;;
65996;SDS011;52765;52.258;21.052;2023-07-22T01:21:01;7.63;;;5.63;;
65996;SDS011;52765;52.258;21.052;2023-07-22T01:23:26;7.40;;;5.90;;
65996;SDS011;52765;52.258;21.052;2023-07-22T01:25:52;8.13;;;5.80;;
65996;SDS011;52765;52.258;21.052;2023-07-22T01:28:18;6.88;;;5.53;;
65996;SDS011;52765;52.258;21.052;2023-07-22T01:30:46;6.20;;;5.53;;
65996;SDS011;52765;52.258;21.052;2023-07-22T01:33:12;6.20;;;5.60;;
65996;SDS011;52765;52.258;21.052;2023-07-22T01:35:37;6.55;;;5.15;;
65996;SDS011;52765;52.258;21.052;2023-07-22T01:38:03;7.05;;;5.75;;
65996;SDS011;52765;52.258;21.052;2023-07-22T01:40:28;7.43;;;6.13;;
65996;SDS011;52765;52.258;21.052;2023-07-22T01:42:54;8.70;;;5.85;;
65996;SDS011;52765;52.258;21.052;2023-07-22T01:45:19;8.70;;;6.00;;
65996;SDS011;52765;52.258;21.052;2023-07-22T01:47:45;7.35;;;6.18;;
65996;SDS011;52765;52.258;21.052;2023-07-22T01:50:10;8.40;;;6.25;;
65996;SDS011;52765;52.258;21.052;2023-07-22T01:52:36;7.38;;;5.85;;
65996;SDS011;52765;52.258;21.052;2023-07-22T01:55:01;7.72;;;6.03;;
65996;SDS011;52765;52.258;21.052;2023-07-22T01:57:31;9.13;;;6.38;;
65996;SDS011;52765;52.258;21.052;2023-07-22T01:59:57;8.27;;;6.32;;
65996;SDS011;52765;52.258;21.052;2023-07-22T02:02:22;7.13;;;6.40;;
65996;SDS011;52765;52.258;21.052;2023-07-22T02:04:48;7.57;;;6.43;;
65996;SDS011;52765;52.258;21.052;2023-07-22T02:07:13;9.77;;;5.82;;
65996;SDS011;52765;52.258;21.052;2023-07-22T02:09:40;7.47;;;6.25;;
65996;SDS011;52765;52.258;21.052;2023-07-22T02:12:06;8.02;;;6.25;;
65996;SDS011;52765;52.258;21.052;2023-07-22T02:14:32;9.70;;;6.90;;
65996;SDS011;52765;52.258;21.052;2023-07-22T02:16:58;6.72;;;6.05;;
65996;SDS011;52765;52.258;21.052;2023-07-22T02:19:24;10.27;;;6.55;;
65996;SDS011;52765;52.258;21.052;2023-07-22T02:21:49;7.28;;;6.00;;
65996;SDS011;52765;52.258;21.052;2023-07-22T02:24:14;7.65;;;6.78;;
65996;SDS011;52765;52.258;21.052;2023-07-22T02:26:40;10.00;;;6.68;;
65996;SDS011;52765;52.258;21.052;2023-07-22T02:29:05;10.43;;;7.15;;
65996;SDS011;52765;52.258;21.052;2023-07-22T02:31:31;10.38;;;7.07;;
65996;SDS011;52765;52.258;21.052;2023-07-22T02:33:56;9.55;;;7.70;;
65996;SDS011;52765;52.258;21.052;2023-07-22T02:36:21;9.32;;;7.07;;
65996;SDS011;52765;52.258;21.052;2023-07-22T02:38:47;8.13;;;6.80;;
65996;SDS011;52765;52.258;21.052;2023-07-22T02:41:12;9.07;;;8.05;;
65996;SDS011;52765;52.258;21.052;2023-07-22T02:43:38;8.32;;;6.85;;
65996;SDS011;52765;52.258;21.052;2023-07-22T02:46:05;8.88;;;7.75;;
65996;SDS011;52765;52.258;21.052;2023-07-22T02:48:32;9.98;;;6.70;;
65996;SDS011;52765;52.258;21.052;2023-07-22T02:51:06;8.13;;;6.78;;
65996;SDS011;52765;52.258;21.052;2023-07-22T02:53:33;8.38;;;7.00;;
65996;SDS011;52765;52.258;21.052;2023-07-22T02:55:59;8.45;;;6.43;;
65996;SDS011;52765;52.258;21.052;2023-07-22T02:58:25;10.25;;;6.78;;
65996;SDS011;52765;52.258;21.052;2023-07-22T03:00:51;12.48;;;7.57;;
65996;SDS011;52765;52.258;21.052;2023-07-22T03:03:16;9.40;;;7.05;;
65996;SDS011;52765;52.258;21.052;2023-07-22T03:05:44;8.77;;;6.72;;
65996;SDS011;52765;52.258;21.052;2023-07-22T03:08:10;10.27;;;7.10;;
65996;SDS011;52765;52.258;21.052;2023-07-22T03:10:36;9.73;;;7.22;;
65996;SDS011;52765;52.258;21.052;2023-07-22T03:13:02;8.27;;;6.63;;
65996;SDS011;52765;52.258;21.052;2023-07-22T03:15:28;14.85;;;7.95;;
65996;SDS011;52765;52.258;21.052;2023-07-22T03:17:55;10.02;;;7.55;;
65996;SDS011;52765;52.258;21.052;2023-07-22T03:20:21;13.55;;;7.50;;
65996;SDS011;52765;52.258;21.052;2023-07-22T03:22:48;11.07;;;8.05;;
65996;SDS011;52765;52.258;21.052;2023-07-22T03:25:14;10.95;;;7.30;;
65996;SDS011;52765;52.258;21.052;2023-07-22T03:27:41;10.68;;;7.65;;
65996;SDS011;52765;52.258;21.052;2023-07-22T03:30:07;8.15;;;7.15;;
65996;SDS011;52765;52.258;21.052;2023-07-22T03:32:35;9.13;;;6.60;;
65996;SDS011;52765;52.258;21.052;2023-07-22T03:35:00;12.95;;;7.70;;
65996;SDS011;52765;52.258;21.052;2023-07-22T03:37:29;9.20;;;7.18;;
65996;SDS011;52765;52.258;21.052;2023-07-22T03:39:54;11.27;;;7.53;;
65996;SDS011;52765;52.258;21.052;2023-07-22T03:42:20;8.38;;;7.15;;
65996;SDS011;52765;52.258;21.052;2023-07-22T03:44:45;7.70;;;6.78;;
65996;SDS011;52765;52.258;21.052;2023-07-22T03:47:11;8.13;;;7.10;;
65996;SDS011;52765;52.258;21.052;2023-07-22T03:49:36;10.35;;;6.85;;
65996;SDS011;52765;52.258;21.052;2023-07-22T03:52:02;9.55;;;7.20;;
65996;SDS011;52765;52.258;21.052;2023-07-22T03:54:27;10.57;;;8.15;;
65996;SDS011;52765;52.258;21.052;2023-07-22T03:56:53;10.40;;;7.82;;
65996;SDS011;52765;52.258;21.052;2023-07-22T03:59:18;8.52;;;7.05;;
65996;SDS011;52765;52.258;21.052;2023-07-22T04:01:43;9.68;;;7.28;;
65996;SDS011;52765;52.258;21.052;2023-07-22T04:04:09;11.30;;;7.55;;
65996;SDS011;52765;52.258;21.052;2023-07-22T04:06:34;9.18;;;6.95;;
65996;SDS011;52765;52.258;21.052;2023-07-22T04:09:00;9.32;;;6.90;;
65996;SDS011;52765;52.258;21.052;2023-07-22T04:11:25;9.48;;;6.25;;
65996;SDS011;52765;52.258;21.052;2023-07-22T04:13:52;9.85;;;6.65;;
65996;SDS011;52765;52.258;21.052;2023-07-22T04:16:17;9.32;;;6.53;;
65996;SDS011;52765;52.258;21.052;2023-07-22T04:18:42;8.90;;;6.97;;
65996;SDS011;52765;52.258;21.052;2023-07-22T04:21:08;7.47;;;6.68;;
65996;SDS011;52765;52.258;21.052;2023-07-22T04:23:33;11.30;;;6.88;;
65996;SDS011;52765;52.258;21.052;2023-07-22T04:26:01;6.88;;;6.18;;
65996;SDS011;52765;52.258;21.052;2023-07-22T04:28:29;8.55;;;6.30;;
65996;SDS011;52765;52.258;21.052;2023-07-22T04:30:56;9.13;;;6.80;;
65996;SDS011;52765;52.258;21.052;2023-07-22T04:33:23;8.38;;;6.63;;
65996;SDS011;52765;52.258;21.052;2023-07-22T04:35:49;9.73;;;6.25;;
65996;SDS011;52765;52.258;21.052;2023-07-22T04:38:14;9.75;;;6.40;;
65996;SDS011;52765;52.258;21.052;2023-07-22T04:40:42;7.72;;;5.75;;
65996;SDS011;52765;52.258;21.052;2023-07-22T04:43:08;11.18;;;6.43;;
65996;SDS011;52765;52.258;21.052;2023-07-22T04:45:34;8.30;;;6.30;;
65996;SDS011;52765;52.258;21.052;2023-07-22T04:47:59;10.00;;;6.97;;
65996;SDS011;52765;52.258;21.052;2023-07-22T04:50:24;7.10;;;6.10;;
65996;SDS011;52765;52.258;21.052;2023-07-22T04:52:50;6.60;;;5.72;;
65996;SDS011;52765;52.258;21.052;2023-07-22T04:55:15;11.27;;;6.43;;
65996;SDS011;52765;52.258;21.052;2023-07-22T04:57:42;11.00;;;7.05;;
65996;SDS011;52765;52.258;21.052;2023-07-22T05:00:10;8.07;;;6.20;;
65996;SDS011;52765;52.258;21.052;2023-07-22T05:02:39;10.10;;;7.60;;
65996;SDS011;52765;52.258;21.052;2023-07-22T05:05:05;12.23;;;7.07;;
65996;SDS011;52765;52.258;21.052;2023-07-22T05:07:30;11.05;;;7.43;;
65996;SDS011;52765;52.258;21.052;2023-07-22T05:09:56;9.57;;;6.80;;
65996;SDS011;52765;52.258;21.052;2023-07-22T05:12:21;8.38;;;6.70;;
65996;SDS011;52765;52.258;21.052;2023-07-22T05:14:47;8.00;;;6.30;;
65996;SDS011;52765;52.258;21.052;2023-07-22T05:17:13;10.43;;;7.20;;
65996;SDS011;52765;52.258;21.052;2023-07-22T05:19:39;10.13;;;7.75;;
65996;SDS011;52765;52.258;21.052;2023-07-22T05:22:04;11.75;;;7.53;;
65996;SDS011;52765;52.258;21.052;2023-07-22T05:24:30;11.82;;;7.90;;
65996;SDS011;52765;52.258;21.052;2023-07-22T05:26:55;10.82;;;8.32;;
65996;SDS011;52765;52.258;21.052;2023-07-22T05:29:20;12.00;;;8.07;;
65996;SDS011;52765;52.258;21.052;2023-07-22T05:31:46;11.65;;;8.23;;
65996;SDS011;52765;52.258;21.052;2023-07-22T05:34:11;9.55;;;7.85;;
65996;SDS011;52765;52.258;21.052;2023-07-22T05:36:37;11.48;;;7.97;;
65996;SDS011;52765;52.258;21.052;2023-07-22T05:39:03;10.40;;;7.60;;
65996;SDS011;52765;52.258;21.052;2023-07-22T05:41:28;11.82;;;8.32;;
65996;SDS011;52765;52.258;21.052;2023-07-22T05:43:54;11.65;;;8.27;;
65996;SDS011;52765;52.258;21.052;2023-07-22T05:46:19;10.30;;;7.95;;
65996;SDS011;52765;52.258;21.052;2023-07-22T05:48:44;10.77;;;8.15;;
65996;SDS011;52765;52.258;21.052;2023-07-22T05:51:10;9.43;;;8.25;;
65996;SDS011;52765;52.258;21.052;2023-07-22T05:53:35;10.00;;;8.07;;
65996;SDS011;52765;52.258;21.052;2023-07-22T05:56:01;9.63;;;8.07;;
65996;SDS011;52765;52.258;21.052;2023-07-22T05:58:26;11.45;;;8.05;;
65996;SDS011;52765;52.258;21.052;2023-07-22T06:00:53;14.43;;;7.60;;
65996;SDS011;52765;52.258;21.052;2023-07-22T06:03:19;8.27;;;7.10;;
65996;SDS011;52765;52.258;21.052;2023-07-22T06:05:46;7.97;;;6.40;;
65996;SDS011;52765;52.258;21.052;2023-07-22T06:08:11;7.47;;;6.22;;
65996;SDS011;52765;52.258;21.052;2023-07-22T06:10:37;8.43;;;6.90;;
65996;SDS011;52765;52.258;21.052;2023-07-22T06:13:03;9.23;;;7.00;;
65996;SDS011;52765;52.258;21.052;2023-07-22T06:15:29;10.07;;;6.25;;
65996;SDS011;52765;52.258;21.052;2023-07-22T06:17:55;11.30;;;7.20;;
65996;SDS011;52765;52.258;21.052;2023-07-22T06:20:20;7.85;;;6.28;;
65996;SDS011;52765;52.258;21.052;2023-07-22T06:22:46;7.78;;;5.43;;
65996;SDS011;52765;52.258;21.052;2023-07-22T06:25:11;10.95;;;6.60;;
65996;SDS011;52765;52.258;21.052;2023-07-22T06:27:37;8.80;;;6.47;;
65996;SDS011;52765;52.258;21.052;2023-07-22T06:30:03;7.13;;;6.00;;
65996;SDS011;52765;52.258;21.052;2023-07-22T06:32:30;12.20;;;6.13;;
65996;SDS011;52765;52.258;21.052;2023-07-22T06:34:58;6.00;;;5.20;;
65996;SDS011;52765;52.258;21.052;2023-07-22T06:37:23;8.13;;;5.50;;
65996;SDS011;52765;52.258;21.052;2023-07-22T06:39:50;7.72;;;4.90;;
65996;SDS011;52765;52.258;21.052;2023-07-22T06:42:15;12.43;;;5.68;;
65996;SDS011;52765;52.258;21.052;2023-07-22T06:44:40;6.00;;;4.53;;
65996;SDS011;52765;52.258;21.052;2023-07-22T06:47:06;8.02;;;4.90;;
65996;SDS011;52765;52.258;21.052;2023-07-22T06:49:32;4.90;;;4.10;;
65996;SDS011;52765;52.258;21.052;2023-07-22T06:51:57;5.88;;;4.43;;
65996;SDS011;52765;52.258;21.052;2023-07-22T06:54:23;5.70;;;4.15;;
65996;SDS011;52765;52.258;21.052;2023-07-22T06:56:48;5.15;;;3.90;;
65996;SDS011;52765;52.258;21.052;2023-07-22T06:59:14;5.40;;;3.65;;
65996;SDS011;52765;52.258;21.052;2023-07-22T07:01:39;5.45;;;3.72;;
65996;SDS011;52765;52.258;21.052;2023-07-22T07:04:04;4.32;;;3.92;;
65996;SDS011;52765;52.258;21.052;2023-07-22T07:06:30;4.82;;;3.15;;
65996;SDS011;52765;52.258;21.052;2023-07-22T07:08:58;4.38;;;3.10;;
65996;SDS011;52765;52.258;21.052;2023-07-22T07:11:25;4.10;;;3.15;;
65996;SDS011;52765;52.258;21.052;2023-07-22T07:13:51;4.47;;;3.00;;
65996;SDS011;52765;52.258;21.052;2023-07-22T07:16:28;4.43;;;3.13;;
65996;SDS011;52765;52.258;21.052;2023-07-22T07:18:56;3.95;;;2.60;;
65996;SDS011;52765;52.258;21.052;2023-07-22T07:21:23;5.13;;;2.60;;
65996;SDS011;52765;52.258;21.052;2023-07-22T07:23:49;5.85;;;3.35;;
65996;SDS011;52765;52.258;21.052;2023-07-22T07:26:15;5.47;;;3.70;;
65996;SDS011;52765;52.258;21.052;2023-07-22T07:28:40;6.88;;;4.22;;
65996;SDS011;52765;52.258;21.052;2023-07-22T07:31:06;3.35;;;2.45;;
65996;SDS011;52765;52.258;21.052;2023-07-22T07:33:32;4.40;;;2.78;;
65996;SDS011;52765;52.258;21.052;2023-07-22T07:35:58;3.05;;;2.75;;
65996;SDS011;52765;52.258;21.052;2023-07-22T07:38:24;5.72;;;3.13;;
65996;SDS011;52765;52.258;21.052;2023-07-22T07:40:56;9.48;;;3.75;;
65996;SDS011;52765;52.258;21.052;2023-07-22T07:43:23;5.93;;;3.33;;
65996;SDS011;52765;52.258;21.052;2023-07-22T07:45:48;6.35;;;3.58;;
65996;SDS011;52765;52.258;21.052;2023-07-22T07:48:14;5.22;;;3.97;;
65996;SDS011;52765;52.258;21.052;2023-07-22T07:50:39;6.53;;;3.92;;
65996;SDS011;52765;52.258;21.052;2023-07-22T07:53:05;8.23;;;3.83;;
65996;SDS011;52765;52.258;21.052;2023-07-22T07:55:30;10.02;;;4.03;;
65996;SDS011;52765;52.258;21.052;2023-07-22T07:57:55;6.55;;;3.35;;
65996;SDS011;52765;52.258;21.052;2023-07-22T08:00:21;6.28;;;4.00;;
65996;SDS011;52765;52.258;21.052;2023-07-22T08:02:46;5.07;;;2.95;;
65996;SDS011;52765;52.258;21.052;2023-07-22T08:05:12;4.68;;;2.70;;
65996;SDS011;52765;52.258;21.052;2023-07-22T08:07:38;3.47;;;2.58;;
65996;SDS011;52765;52.258;21.052;2023-07-22T08:10:04;4.55;;;2.88;;
65996;SDS011;52765;52.258;21.052;2023-07-22T08:12:33;5.72;;;2.92;;
65996;SDS011;52765;52.258;21.052;2023-07-22T08:15:01;4.50;;;2.83;;
65996;SDS011;52765;52.258;21.052;2023-07-22T08:17:27;6.18;;;2.58;;
65996;SDS011;52765;52.258;21.052;2023-07-22T08:19:52;5.57;;;2.70;;
65996;SDS011;52765;52.258;21.052;2023-07-22T08:22:20;6.38;;;2.22;;
65996;SDS011;52765;52.258;21.052;2023-07-22T08:24:47;4.70;;;2.35;;
65996;SDS011;52765;52.258;21.052;2023-07-22T08:27:12;2.28;;;2.03;;
65996;SDS011;52765;52.258;21.052;2023-07-22T08:29:38;2.80;;;2.10;;
65996;SDS011;52765;52.258;21.052;2023-07-22T08:32:03;4.47;;;2.28;;
65996;SDS011;52765;52.258;21.052;2023-07-22T08:34:29;8.85;;;4.93;;
65996;SDS011;52765;52.258;21.052;2023-07-22T08:36:54;4.38;;;2.53;;
65996;SDS011;52765;52.258;21.052;2023-07-22T08:39:23;2.67;;;1.90;;
65996;SDS011;52765;52.258;21.052;2023-07-22T08:41:48;6.13;;;2.10;;
65996;SDS011;52765;52.258;21.052;2023-07-22T08:44:18;2.72;;;1.85;;
65996;SDS011;52765;52.258;21.052;2023-07-22T08:46:47;4.43;;;1.88;;
65996;SDS011;52765;52.258;21.052;2023-07-22T08:49:18;4.85;;;2.03;;
65996;SDS011;52765;52.258;21.052;2023-07-22T08:51:44;3.83;;;2.17;;
65996;SDS011;52765;52.258;21.052;2023-07-22T08:54:11;5.78;;;1.92;;
65996;SDS011;52765;52.258;21.052;2023-07-22T08:56:38;5.93;;;2.13;;
65996;SDS011;52765;52.258;21.052;2023-07-22T08:59:07;5.88;;;2.03;;
65996;SDS011;52765;52.258;21.052;2023-07-22T09:01:33;4.10;;;2.28;;
65996;SDS011;52765;52.258;21.052;2023-07-22T09:04:01;3.08;;;1.95;;
65996;SDS011;52765;52.258;21.052;2023-07-22T09:06:26;7.30;;;2.15;;
65996;SDS011;52765;52.258;21.052;2023-07-22T09:08:52;4.38;;;2.30;;
65996;SDS011;52765;52.258;21.052;2023-07-22T09:11:18;4.88;;;2.20;;
65996;SDS011;52765;52.258;21.052;2023-07-22T09:13:44;6.03;;;2.28;;
65996;SDS011;52765;52.258;21.052;2023-07-22T09:16:11;3.53;;;2.10;;
65996;SDS011;52765;52.258;21.052;2023-07-22T09:18:38;7.13;;;2.30;;
65996;SDS011;52765;52.258;21.052;2023-07-22T09:21:03;3.30;;;2.13;;
65996;SDS011;52765;52.258;21.052;2023-07-22T09:23:39;3.75;;;2.10;;
65996;SDS011;52765;52.258;21.052;2023-07-22T09:26:17;3.95;;;2.20;;
65996;SDS011;52765;52.258;21.052;2023-07-22T09:28:50;4.97;;;2.55;;
65996;SDS011;52765;52.258;21.052;2023-07-22T09:31:26;4.60;;;2.42;;
65996;SDS011;52765;52.258;21.052;2023-07-22T09:33:53;3.83;;;2.40;;
65996;SDS011;52765;52.258;21.052;2023-07-22T09:36:19;4.38;;;2.45;;
65996;SDS011;52765;52.258;21.052;2023-07-22T09:38:45;3.17;;;2.20;;
65996;SDS011;52765;52.258;21.052;2023-07-22T09:41:41;4.47;;;2.40;;
65996;SDS011;52765;52.258;21.052;2023-07-22T09:44:09;4.40;;;2.35;;
65996;SDS011;52765;52.258;21.052;2023-07-22T09:46:36;5.18;;;2.10;;
65996;SDS011;52765;52.258;21.052;2023-07-22T09:49:04;6.25;;;2.22;;
65996;SDS011;52765;52.258;21.052;2023-07-22T09:51:34;4.38;;;3.05;;
65996;SDS011;52765;52.258;21.052;2023-07-22T09:54:02;8.63;;;2.75;;
65996;SDS011;52765;52.258;21.052;2023-07-22T09:56:28;3.30;;;2.10;;
65996;SDS011;52765;52.258;21.052;2023-07-22T09:58:54;3.35;;;2.03;;
65996;SDS011;52765;52.258;21.052;2023-07-22T10:01:21;6.40;;;2.03;;
65996;SDS011;52765;52.258;21.052;2023-07-22T10:03:50;3.15;;;1.83;;
65996;SDS011;52765;52.258;21.052;2023-07-22T10:06:20;3.08;;;1.58;;
65996;SDS011;52765;52.258;21.052;2023-07-22T10:08:57;3.70;;;1.80;;
65996;SDS011;52765;52.258;21.052;2023-07-22T10:11:29;2.95;;;1.98;;
65996;SDS011;52765;52.258;21.052;2023-07-22T10:13:55;2.80;;;1.75;;
65996;SDS011;52765;52.258;21.052;2023-07-22T10:16:21;3.83;;;1.52;;
65996;SDS011;52765;52.258;21.052;2023-07-22T10:18:48;7.72;;;2.40;;
65996;SDS011;52765;52.258;21.052;2023-07-22T10:21:13;3.05;;;1.73;;
65996;SDS011;52765;52.258;21.052;2023-07-22T10:23:41;2.88;;;1.67;;
65996;SDS011;52765;52.258;21.052;2023-07-22T10:26:11;2.95;;;1.60;;
65996;SDS011;52765;52.258;21.052;2023-07-22T10:28:39;5.38;;;1.48;;
65996;SDS011;52765;52.258;21.052;2023-07-22T10:31:05;2.38;;;1.33;;
65996;SDS011;52765;52.258;21.052;2023-07-22T10:33:32;3.50;;;1.40;;
65996;SDS011;52765;52.258;21.052;2023-07-22T10:36:04;3.30;;;1.30;;
65996;SDS011;52765;52.258;21.052;2023-07-22T10:38:31;1.48;;;1.08;;
65996;SDS011;52765;52.258;21.052;2023-07-22T10:40:57;3.05;;;1.48;;
65996;SDS011;52765;52.258;21.052;2023-07-22T10:43:32;1.45;;;1.35;;
65996;SDS011;52765;52.258;21.052;2023-07-22T10:46:05;2.05;;;1.30;;
65996;SDS011;52765;52.258;21.052;2023-07-22T10:48:34;1.83;;;1.30;;
65996;SDS011;52765;52.258;21.052;2023-07-22T10:51:05;2.22;;;1.50;;
65996;SDS011;52765;52.258;21.052;2023-07-22T10:53:57;3.40;;;1.50;;
65996;SDS011;52765;52.258;21.052;2023-07-22T10:56:23;2.05;;;1.25;;
65996;SDS011;52765;52.258;21.052;2023-07-22T10:58:55;2.22;;;1.48;;
65996;SDS011;52765;52.258;21.052;2023-07-22T11:04:07;3.13;;;1.65;;
65996;SDS011;52765;52.258;21.052;2023-07-22T11:12:11;4.18;;;1.60;;
65996;SDS011;52765;52.258;21.052;2023-07-22T11:14:45;2.25;;;1.42;;
65996;SDS011;52765;52.258;21.052;2023-07-22T11:19:40;2.38;;;1.63;;
65996;SDS011;52765;52.258;21.052;2023-07-22T11:22:06;3.55;;;1.30;;
65996;SDS011;52765;52.258;21.052;2023-07-22T11:24:34;5.10;;;1.52;;
65996;SDS011;52765;52.258;21.052;2023-07-22T11:27:03;1.52;;;1.10;;
65996;SDS011;52765;52.258;21.052;2023-07-22T11:29:30;1.33;;;1.20;;
65996;SDS011;52765;52.258;21.052;2023-07-22T11:31:56;3.17;;;1.45;;
65996;SDS011;52765;52.258;21.052;2023-07-22T11:34:22;2.42;;;1.25;;
65996;SDS011;52765;52.258;21.052;2023-07-22T11:36:50;3.17;;;1.40;;
65996;SDS011;52765;52.258;21.052;2023-07-22T11:39:17;4.32;;;1.33;;
65996;SDS011;52765;52.258;21.052;2023-07-22T11:41:44;3.72;;;1.60;;
65996;SDS011;52765;52.258;21.052;2023-07-22T11:44:11;2.97;;;1.42;;
65996;SDS011;52765;52.258;21.052;2023-07-22T11:49:32;6.43;;;1.70;;
65996;SDS011;52765;52.258;21.052;2023-07-22T11:51:59;2.28;;;1.77;;
65996;SDS011;52765;52.258;21.052;2023-07-22T11:54:27;2.75;;;1.60;;
65996;SDS011;52765;52.258;21.052;2023-07-22T11:56:55;3.95;;;1.50;;
65996;SDS011;52765;52.258;21.052;2023-07-22T11:59:36;2.65;;;1.58;;
65996;SDS011;52765;52.258;21.052;2023-07-22T12:02:03;8.95;;;5.75;;
65996;SDS011;52765;52.258;21.052;2023-07-22T12:04:32;1.95;;;1.65;;
65996;SDS011;52765;52.258;21.052;2023-07-22T12:07:01;2.35;;;1.67;;
65996;SDS011;52765;52.258;21.052;2023-07-22T12:09:29;3.58;;;1.63;;
65996;SDS011;52765;52.258;21.052;2023-07-22T12:11:57;3.53;;;1.80;;
65996;SDS011;52765;52.258;21.052;2023-07-22T12:14:23;2.47;;;1.40;;
65996;SDS011;52765;52.258;21.052;2023-07-22T12:16:52;3.03;;;1.80;;
65996;SDS011;52765;52.258;21.052;2023-07-22T12:19:23;2.60;;;1.58;;
65996;SDS011;52765;52.258;21.052;2023-07-22T12:21:49;3.70;;;1.30;;
65996;SDS011;52765;52.258;21.052;2023-07-22T12:24:14;2.08;;;1.60;;
65996;SDS011;52765;52.258;21.052;2023-07-22T12:26:40;2.28;;;1.42;;
65996;SDS011;52765;52.258;21.052;2023-07-22T12:29:06;4.38;;;1.60;;
65996;SDS011;52765;52.258;21.052;2023-07-22T12:31:33;3.95;;;1.73;;
65996;SDS011;52765;52.258;21.052;2023-07-22T12:33:58;12.15;;;1.80;;
65996;SDS011;52765;52.258;21.052;2023-07-22T12:36:24;1.52;;;1.42;;
65996;SDS011;52765;52.258;21.052;2023-07-22T12:38:49;2.22;;;1.80;;
65996;SDS011;52765;52.258;21.052;2023-07-22T12:41:14;3.10;;;1.88;;
65996;SDS011;52765;52.258;21.052;2023-07-22T12:43:40;2.35;;;1.77;;
65996;SDS011;52765;52.258;21.052;2023-07-22T12:46:05;6.35;;;1.55;;
65996;SDS011;52765;52.258;21.052;2023-07-22T12:48:31;2.17;;;1.52;;
65996;SDS011;52765;52.258;21.052;2023-07-22T12:50:56;3.42;;;1.83;;
65996;SDS011;52765;52.258;21.052;2023-07-22T12:53:22;3.20;;;1.73;;
65996;SDS011;52765;52.258;21.052;2023-07-22T12:55:47;1.90;;;1.70;;
65996;SDS011;52765;52.258;21.052;2023-07-22T12:58:13;2.30;;;1.30;;
65996;SDS011;52765;52.258;21.052;2023-07-22T13:00:39;4.05;;;1.40;;
65996;SDS011;52765;52.258;21.052;2023-07-22T13:03:04;2.63;;;1.50;;
65996;SDS011;52765;52.258;21.052;2023-07-22T13:05:31;3.42;;;1.58;;
65996;SDS011;52765;52.258;21.052;2023-07-22T13:07:56;3.35;;;1.50;;
65996;SDS011;52765;52.258;21.052;2023-07-22T13:10:23;1.80;;;1.30;;
65996;SDS011;52765;52.258;21.052;2023-07-22T13:12:50;5.32;;;1.60;;
65996;SDS011;52765;52.258;21.052;2023-07-22T13:15:15;4.90;;;1.70;;
65996;SDS011;52765;52.258;21.052;2023-07-22T13:17:41;3.30;;;1.30;;
65996;SDS011;52765;52.258;21.052;2023-07-22T13:20:07;5.97;;;1.42;;
65996;SDS011;52765;52.258;21.052;2023-07-22T13:22:34;3.97;;;1.42;;
65996;SDS011;52765;52.258;21.052;2023-07-22T13:25:00;2.67;;;1.38;;
65996;SDS011;52765;52.258;21.052;2023-07-22T13:27:26;2.42;;;1.42;;
65996;SDS011;52765;52.258;21.052;2023-07-22T13:29:51;3.47;;;1.60;;
65996;SDS011;52765;52.258;21.052;2023-07-22T13:32:17;3.55;;;1.77;;
65996;SDS011;52765;52.258;21.052;2023-07-22T13:34:42;3.65;;;1.45;;
65996;SDS011;52765;52.258;21.052;2023-07-22T13:37:08;2.92;;;1.30;;
65996;SDS011;52765;52.258;21.052;2023-07-22T13:39:33;1.60;;;1.50;;
65996;SDS011;52765;52.258;21.052;2023-07-22T13:41:59;5.63;;;1.75;;
65996;SDS011;52765;52.258;21.052;2023-07-22T13:44:25;4.00;;;1.73;;
65996;SDS011;52765;52.258;21.052;2023-07-22T13:46:50;3.47;;;1.48;;
65996;SDS011;52765;52.258;21.052;2023-07-22T13:49:16;2.65;;;1.67;;
65996;SDS011;52765;52.258;21.052;2023-07-22T13:51:42;3.72;;;1.50;;
65996;SDS011;52765;52.258;21.052;2023-07-22T13:54:08;2.35;;;1.52;;
65996;SDS011;52765;52.258;21.052;2023-07-22T13:56:33;3.30;;;1.52;;
65996;SDS011;52765;52.258;21.052;2023-07-22T13:59:00;1.85;;;1.42;;
65996;SDS011;52765;52.258;21.052;2023-07-22T14:01:26;7.05;;;1.70;;
65996;SDS011;52765;52.258;21.052;2023-07-22T14:03:52;2.78;;;1.70;;
65996;SDS011;52765;52.258;21.052;2023-07-22T14:06:18;2.50;;;1.65;;
65996;SDS011;52765;52.258;21.052;2023-07-22T14:08:43;2.35;;;1.85;;
65996;SDS011;52765;52.258;21.052;2023-07-22T14:11:08;2.75;;;1.45;;
65996;SDS011;52765;52.258;21.052;2023-07-22T14:13:34;2.80;;;1.60;;
65996;SDS011;52765;52.258;21.052;2023-07-22T14:16:00;8.00;;;1.73;;
65996;SDS011;52765;52.258;21.052;2023-07-22T14:18:26;5.50;;;1.45;;
65996;SDS011;52765;52.258;21.052;2023-07-22T14:20:51;4.75;;;1.42;;
65996;SDS011;52765;52.258;21.052;2023-07-22T14:23:17;4.00;;;1.48;;
65996;SDS011;52765;52.258;21.052;2023-07-22T14:25:42;5.95;;;1.65;;
65996;SDS011;52765;52.258;21.052;2023-07-22T14:28:07;3.70;;;1.63;;
65996;SDS011;52765;52.258;21.052;2023-07-22T14:30:33;6.85;;;2.10;;
65996;SDS011;52765;52.258;21.052;2023-07-22T14:32:58;8.63;;;2.13;;
65996;SDS011;52765;52.258;21.052;2023-07-22T14:35:24;2.28;;;1.67;;
65996;SDS011;52765;52.258;21.052;2023-07-22T14:37:49;3.20;;;1.80;;
65996;SDS011;52765;52.258;21.052;2023-07-22T14:40:17;2.20;;;1.67;;
65996;SDS011;52765;52.258;21.052;2023-07-22T14:42:42;3.95;;;1.60;;